Terminal Aerodrome Forecast
Issued by NWS

Home | Current Version | Previous Version | Text Only | Print | Product List | Glossary On
Versions: 1 2 3 4 5 6 7 8 9 10 11 12 13 14 15 16 17 18 19 20 21 22 23 24 25 26 27 28 29 30 31 32
000
FTAK31 PANC 180539
TAFAVD
TAF
PAVD 180539Z 1806/1906 VRB03KT P6SM FEW015 BKN050
      TEMPO 1806/1810 -SHRA BKN035
     FM182100 25006KT P6SM -SHRA BKN040
      AMD LTD TO CLD VIS AND WIND=

USA.gov is the U.S. government's official web portal to all federal, state and local government web resources and services.